sensor_id;sensor_type;location;lat;lon;timestamp;P1;durP1;ratioP1;P2;durP2;ratioP2
56537;SDS011;42435;53.292;6.000;2022-09-09T00:04:58;9.35;;;5.47;;
56537;SDS011;42435;53.292;6.000;2022-09-09T00:07:47;10.13;;;5.75;;
56537;SDS011;42435;53.292;6.000;2022-09-09T00:10:17;9.95;;;5.55;;
56537;SDS011;42435;53.292;6.000;2022-09-09T00:12:57;10.88;;;5.72;;
56537;SDS011;42435;53.292;6.000;2022-09-09T00:15:55;6.55;;;5.20;;
56537;SDS011;42435;53.292;6.000;2022-09-09T00:22:05;9.05;;;5.05;;
56537;SDS011;42435;53.292;6.000;2022-09-09T00:24:26;8.43;;;5.15;;
56537;SDS011;42435;53.292;6.000;2022-09-09T00:27:01;6.78;;;4.35;;
56537;SDS011;42435;53.292;6.000;2022-09-09T00:29:43;9.02;;;5.25;;
56537;SDS011;42435;53.292;6.000;2022-09-09T00:32:16;8.75;;;4.75;;
56537;SDS011;42435;53.292;6.000;2022-09-09T00:35:01;8.85;;;5.82;;
56537;SDS011;42435;53.292;6.000;2022-09-09T00:37:36;10.18;;;6.53;;
56537;SDS011;42435;53.292;6.000;2022-09-09T00:40:11;8.73;;;5.07;;
56537;SDS011;42435;53.292;6.000;2022-09-09T00:42:54;9.20;;;5.50;;
56537;SDS011;42435;53.292;6.000;2022-09-09T00:48:23;7.57;;;4.78;;
56537;SDS011;42435;53.292;6.000;2022-09-09T00:51:02;9.27;;;5.75;;
56537;SDS011;42435;53.292;6.000;2022-09-09T00:54:04;8.55;;;5.32;;
56537;SDS011;42435;53.292;6.000;2022-09-09T00:56:37;7.32;;;4.82;;
56537;SDS011;42435;53.292;6.000;2022-09-09T01:01:36;9.00;;;4.85;;
56537;SDS011;42435;53.292;6.000;2022-09-09T01:04:03;9.57;;;5.50;;
56537;SDS011;42435;53.292;6.000;2022-09-09T01:06:35;8.50;;;5.57;;
56537;SDS011;42435;53.292;6.000;2022-09-09T01:12:15;9.77;;;5.07;;
56537;SDS011;42435;53.292;6.000;2022-09-09T01:14:47;9.52;;;5.40;;
56537;SDS011;42435;53.292;6.000;2022-09-09T01:20:25;9.15;;;4.90;;
56537;SDS011;42435;53.292;6.000;2022-09-09T01:28:48;9.02;;;4.22;;
56537;SDS011;42435;53.292;6.000;2022-09-09T01:31:26;10.27;;;5.43;;
56537;SDS011;42435;53.292;6.000;2022-09-09T01:34:13;8.48;;;4.72;;
56537;SDS011;42435;53.292;6.000;2022-09-09T01:39:18;6.85;;;4.80;;
56537;SDS011;42435;53.292;6.000;2022-09-09T01:41:45;12.85;;;5.82;;
56537;SDS011;42435;53.292;6.000;2022-09-09T01:44:10;9.43;;;5.63;;
56537;SDS011;42435;53.292;6.000;2022-09-09T01:46:37;8.70;;;5.22;;
56537;SDS011;42435;53.292;6.000;2022-09-09T01:49:03;8.25;;;5.18;;
56537;SDS011;42435;53.292;6.000;2022-09-09T01:51:34;8.95;;;5.55;;
56537;SDS011;42435;53.292;6.000;2022-09-09T01:54:01;9.98;;;5.72;;
56537;SDS011;42435;53.292;6.000;2022-09-09T01:59:38;8.45;;;5.15;;
56537;SDS011;42435;53.292;6.000;2022-09-09T02:02:17;8.50;;;5.13;;
56537;SDS011;42435;53.292;6.000;2022-09-09T02:04:44;6.88;;;4.82;;
56537;SDS011;42435;53.292;6.000;2022-09-09T02:09:45;10.02;;;5.60;;
56537;SDS011;42435;53.292;6.000;2022-09-09T02:12:16;9.68;;;5.72;;
56537;SDS011;42435;53.292;6.000;2022-09-09T02:14:55;13.20;;;6.05;;
56537;SDS011;42435;53.292;6.000;2022-09-09T02:17:28;10.05;;;5.18;;
56537;SDS011;42435;53.292;6.000;2022-09-09T02:20:15;10.65;;;5.65;;
56537;SDS011;42435;53.292;6.000;2022-09-09T02:22:43;7.72;;;5.32;;
56537;SDS011;42435;53.292;6.000;2022-09-09T02:25:12;9.85;;;5.35;;
56537;SDS011;42435;53.292;6.000;2022-09-09T02:27:42;7.78;;;5.90;;
56537;SDS011;42435;53.292;6.000;2022-09-09T02:30:10;8.57;;;5.43;;
56537;SDS011;42435;53.292;6.000;2022-09-09T02:32:37;12.02;;;5.78;;
56537;SDS011;42435;53.292;6.000;2022-09-09T02:35:13;11.35;;;6.10;;
56537;SDS011;42435;53.292;6.000;2022-09-09T02:37:42;8.75;;;5.57;;
56537;SDS011;42435;53.292;6.000;2022-09-09T02:40:11;8.02;;;5.93;;
56537;SDS011;42435;53.292;6.000;2022-09-09T02:42:41;9.90;;;5.50;;
56537;SDS011;42435;53.292;6.000;2022-09-09T02:45:09;9.57;;;5.95;;
56537;SDS011;42435;53.292;6.000;2022-09-09T02:50:26;9.32;;;4.70;;
56537;SDS011;42435;53.292;6.000;2022-09-09T02:53:06;9.50;;;5.15;;
56537;SDS011;42435;53.292;6.000;2022-09-09T02:55:48;8.50;;;4.85;;
56537;SDS011;42435;53.292;6.000;2022-09-09T02:58:20;9.55;;;6.45;;
56537;SDS011;42435;53.292;6.000;2022-09-09T03:00:47;8.07;;;4.82;;
56537;SDS011;42435;53.292;6.000;2022-09-09T03:03:15;7.25;;;5.05;;
56537;SDS011;42435;53.292;6.000;2022-09-09T03:05:42;8.25;;;5.05;;
56537;SDS011;42435;53.292;6.000;2022-09-09T03:08:08;7.38;;;4.57;;
56537;SDS011;42435;53.292;6.000;2022-09-09T03:10:34;9.88;;;4.97;;
56537;SDS011;42435;53.292;6.000;2022-09-09T03:13:02;8.68;;;4.85;;
56537;SDS011;42435;53.292;6.000;2022-09-09T03:15:29;9.43;;;5.45;;
56537;SDS011;42435;53.292;6.000;2022-09-09T03:17:56;6.05;;;3.72;;
56537;SDS011;42435;53.292;6.000;2022-09-09T03:20:23;10.30;;;4.93;;
56537;SDS011;42435;53.292;6.000;2022-09-09T03:22:51;7.13;;;4.35;;
56537;SDS011;42435;53.292;6.000;2022-09-09T03:25:18;9.80;;;5.70;;
56537;SDS011;42435;53.292;6.000;2022-09-09T03:27:43;8.50;;;5.68;;
56537;SDS011;42435;53.292;6.000;2022-09-09T03:30:09;12.07;;;5.20;;
56537;SDS011;42435;53.292;6.000;2022-09-09T03:32:36;11.02;;;5.15;;
56537;SDS011;42435;53.292;6.000;2022-09-09T03:35:02;6.05;;;4.75;;
56537;SDS011;42435;53.292;6.000;2022-09-09T03:37:28;9.05;;;5.55;;
56537;SDS011;42435;53.292;6.000;2022-09-09T03:39:53;9.68;;;6.03;;
56537;SDS011;42435;53.292;6.000;2022-09-09T03:42:22;9.77;;;5.50;;
56537;SDS011;42435;53.292;6.000;2022-09-09T03:44:48;8.20;;;4.70;;
56537;SDS011;42435;53.292;6.000;2022-09-09T03:47:18;8.32;;;4.63;;
56537;SDS011;42435;53.292;6.000;2022-09-09T03:49:46;7.28;;;5.25;;
56537;SDS011;42435;53.292;6.000;2022-09-09T03:52:13;8.30;;;5.18;;
56537;SDS011;42435;53.292;6.000;2022-09-09T03:54:39;6.65;;;4.40;;
56537;SDS011;42435;53.292;6.000;2022-09-09T03:57:06;10.20;;;5.47;;
56537;SDS011;42435;53.292;6.000;2022-09-09T03:59:32;8.20;;;4.78;;
56537;SDS011;42435;53.292;6.000;2022-09-09T04:01:57;9.10;;;5.20;;
56537;SDS011;42435;53.292;6.000;2022-09-09T04:04:24;7.95;;;4.57;;
56537;SDS011;42435;53.292;6.000;2022-09-09T04:06:51;9.60;;;5.07;;
56537;SDS011;42435;53.292;6.000;2022-09-09T04:09:17;9.05;;;4.75;;
56537;SDS011;42435;53.292;6.000;2022-09-09T04:11:42;8.75;;;4.65;;
56537;SDS011;42435;53.292;6.000;2022-09-09T04:14:08;6.72;;;4.68;;
56537;SDS011;42435;53.292;6.000;2022-09-09T04:16:34;8.00;;;4.70;;
56537;SDS011;42435;53.292;6.000;2022-09-09T04:19:01;6.47;;;4.18;;
56537;SDS011;42435;53.292;6.000;2022-09-09T04:21:29;7.60;;;4.68;;
56537;SDS011;42435;53.292;6.000;2022-09-09T04:23:55;10.25;;;4.53;;
56537;SDS011;42435;53.292;6.000;2022-09-09T04:26:21;6.38;;;3.72;;
56537;SDS011;42435;53.292;6.000;2022-09-09T04:28:46;6.57;;;4.25;;
56537;SDS011;42435;53.292;6.000;2022-09-09T04:31:14;11.02;;;4.85;;
56537;SDS011;42435;53.292;6.000;2022-09-09T04:33:43;10.85;;;4.95;;
56537;SDS011;42435;53.292;6.000;2022-09-09T04:36:09;6.65;;;4.32;;
56537;SDS011;42435;53.292;6.000;2022-09-09T04:38:34;8.52;;;5.20;;
56537;SDS011;42435;53.292;6.000;2022-09-09T04:41:01;7.18;;;4.85;;
56537;SDS011;42435;53.292;6.000;2022-09-09T04:43:26;6.07;;;4.28;;
56537;SDS011;42435;53.292;6.000;2022-09-09T04:45:52;8.70;;;4.45;;
56537;SDS011;42435;53.292;6.000;2022-09-09T04:48:18;8.98;;;4.60;;
56537;SDS011;42435;53.292;6.000;2022-09-09T04:50:53;8.65;;;5.05;;
56537;SDS011;42435;53.292;6.000;2022-09-09T04:53:19;7.50;;;4.45;;
56537;SDS011;42435;53.292;6.000;2022-09-09T04:55:45;6.47;;;4.40;;
56537;SDS011;42435;53.292;6.000;2022-09-09T04:58:11;7.10;;;4.20;;
56537;SDS011;42435;53.292;6.000;2022-09-09T05:00:37;8.18;;;4.47;;
56537;SDS011;42435;53.292;6.000;2022-09-09T05:03:03;8.20;;;4.60;;
56537;SDS011;42435;53.292;6.000;2022-09-09T05:05:29;8.63;;;4.65;;
56537;SDS011;42435;53.292;6.000;2022-09-09T05:08:00;7.47;;;4.07;;
56537;SDS011;42435;53.292;6.000;2022-09-09T05:10:30;8.05;;;5.07;;
56537;SDS011;42435;53.292;6.000;2022-09-09T05:12:56;8.70;;;5.32;;
56537;SDS011;42435;53.292;6.000;2022-09-09T05:15:21;7.05;;;4.80;;
56537;SDS011;42435;53.292;6.000;2022-09-09T05:17:47;6.60;;;4.30;;
56537;SDS011;42435;53.292;6.000;2022-09-09T05:20:13;11.52;;;5.35;;
56537;SDS011;42435;53.292;6.000;2022-09-09T05:22:38;9.50;;;5.30;;
56537;SDS011;42435;53.292;6.000;2022-09-09T05:25:05;9.27;;;4.75;;
56537;SDS011;42435;53.292;6.000;2022-09-09T05:27:33;7.80;;;4.70;;
56537;SDS011;42435;53.292;6.000;2022-09-09T05:29:59;9.70;;;5.28;;
56537;SDS011;42435;53.292;6.000;2022-09-09T05:32:24;7.53;;;5.15;;
56537;SDS011;42435;53.292;6.000;2022-09-09T05:34:50;13.43;;;5.80;;
56537;SDS011;42435;53.292;6.000;2022-09-09T05:37:17;9.88;;;6.50;;
56537;SDS011;42435;53.292;6.000;2022-09-09T05:39:43;7.22;;;5.05;;
56537;SDS011;42435;53.292;6.000;2022-09-09T05:42:08;12.13;;;5.10;;
56537;SDS011;42435;53.292;6.000;2022-09-09T05:44:34;7.40;;;5.47;;
56537;SDS011;42435;53.292;6.000;2022-09-09T05:46:59;8.45;;;5.03;;
56537;SDS011;42435;53.292;6.000;2022-09-09T05:49:25;8.15;;;5.28;;
56537;SDS011;42435;53.292;6.000;2022-09-09T05:51:51;12.85;;;5.70;;
56537;SDS011;42435;53.292;6.000;2022-09-09T05:54:16;8.80;;;5.93;;
56537;SDS011;42435;53.292;6.000;2022-09-09T05:56:42;9.45;;;5.60;;
56537;SDS011;42435;53.292;6.000;2022-09-09T05:59:08;7.53;;;5.50;;
56537;SDS011;42435;53.292;6.000;2022-09-09T06:01:35;12.02;;;5.90;;
56537;SDS011;42435;53.292;6.000;2022-09-09T06:04:05;8.63;;;5.90;;
56537;SDS011;42435;53.292;6.000;2022-09-09T06:06:32;8.65;;;5.53;;
56537;SDS011;42435;53.292;6.000;2022-09-09T06:09:04;9.63;;;6.30;;
56537;SDS011;42435;53.292;6.000;2022-09-09T06:11:35;9.00;;;6.07;;
56537;SDS011;42435;53.292;6.000;2022-09-09T06:14:02;10.57;;;7.28;;
56537;SDS011;42435;53.292;6.000;2022-09-09T06:16:28;8.00;;;5.93;;
56537;SDS011;42435;53.292;6.000;2022-09-09T06:18:55;9.60;;;7.00;;
56537;SDS011;42435;53.292;6.000;2022-09-09T06:21:26;9.60;;;7.47;;
56537;SDS011;42435;53.292;6.000;2022-09-09T06:23:55;8.90;;;5.95;;
56537;SDS011;42435;53.292;6.000;2022-09-09T06:26:22;12.30;;;6.85;;
56537;SDS011;42435;53.292;6.000;2022-09-09T06:28:51;13.52;;;7.15;;
56537;SDS011;42435;53.292;6.000;2022-09-09T06:31:19;14.32;;;7.35;;
56537;SDS011;42435;53.292;6.000;2022-09-09T06:33:47;10.73;;;6.43;;
56537;SDS011;42435;53.292;6.000;2022-09-09T06:36:21;11.65;;;6.88;;
56537;SDS011;42435;53.292;6.000;2022-09-09T06:38:48;11.57;;;6.88;;
56537;SDS011;42435;53.292;6.000;2022-09-09T06:41:14;9.93;;;6.57;;
56537;SDS011;42435;53.292;6.000;2022-09-09T06:43:45;11.10;;;7.10;;
56537;SDS011;42435;53.292;6.000;2022-09-09T06:46:12;10.85;;;6.05;;
56537;SDS011;42435;53.292;6.000;2022-09-09T06:48:39;9.50;;;6.22;;
56537;SDS011;42435;53.292;6.000;2022-09-09T06:53:37;9.15;;;6.05;;
56537;SDS011;42435;53.292;6.000;2022-09-09T06:58:35;9.68;;;5.75;;
56537;SDS011;42435;53.292;6.000;2022-09-09T07:01:02;10.00;;;6.15;;
56537;SDS011;42435;53.292;6.000;2022-09-09T07:03:32;9.88;;;6.40;;
56537;SDS011;42435;53.292;6.000;2022-09-09T07:05:58;9.40;;;5.65;;
56537;SDS011;42435;53.292;6.000;2022-09-09T07:08:25;8.63;;;5.85;;
56537;SDS011;42435;53.292;6.000;2022-09-09T07:10:51;9.23;;;5.32;;
56537;SDS011;42435;53.292;6.000;2022-09-09T07:13:25;11.15;;;6.85;;
56537;SDS011;42435;53.292;6.000;2022-09-09T07:15:52;10.70;;;5.50;;
56537;SDS011;42435;53.292;6.000;2022-09-09T07:18:18;10.35;;;5.63;;
56537;SDS011;42435;53.292;6.000;2022-09-09T07:20:54;8.95;;;5.68;;
56537;SDS011;42435;53.292;6.000;2022-09-09T07:23:21;6.90;;;4.85;;
56537;SDS011;42435;53.292;6.000;2022-09-09T07:25:47;8.13;;;5.35;;
56537;SDS011;42435;53.292;6.000;2022-09-09T07:28:13;11.43;;;5.18;;
56537;SDS011;42435;53.292;6.000;2022-09-09T07:30:39;11.20;;;4.97;;
56537;SDS011;42435;53.292;6.000;2022-09-09T07:33:05;9.45;;;5.43;;
56537;SDS011;42435;53.292;6.000;2022-09-09T07:35:32;7.82;;;5.70;;
56537;SDS011;42435;53.292;6.000;2022-09-09T07:38:00;11.77;;;5.53;;
56537;SDS011;42435;53.292;6.000;2022-09-09T07:40:26;9.50;;;6.18;;
56537;SDS011;42435;53.292;6.000;2022-09-09T07:42:52;11.70;;;7.05;;
56537;SDS011;42435;53.292;6.000;2022-09-09T07:45:18;9.60;;;6.90;;
56537;SDS011;42435;53.292;6.000;2022-09-09T07:47:44;13.93;;;7.20;;
56537;SDS011;42435;53.292;6.000;2022-09-09T07:50:10;12.48;;;6.65;;
56537;SDS011;42435;53.292;6.000;2022-09-09T07:52:36;11.15;;;6.38;;
56537;SDS011;42435;53.292;6.000;2022-09-09T07:55:02;14.60;;;8.32;;
56537;SDS011;42435;53.292;6.000;2022-09-09T07:57:29;8.93;;;5.70;;
56537;SDS011;42435;53.292;6.000;2022-09-09T07:59:56;8.20;;;4.72;;
56537;SDS011;42435;53.292;6.000;2022-09-09T08:02:22;9.48;;;5.07;;
56537;SDS011;42435;53.292;6.000;2022-09-09T08:04:50;13.50;;;6.00;;
56537;SDS011;42435;53.292;6.000;2022-09-09T08:07:16;9.70;;;5.18;;
56537;SDS011;42435;53.292;6.000;2022-09-09T08:09:42;8.75;;;4.63;;
56537;SDS011;42435;53.292;6.000;2022-09-09T08:12:08;10.80;;;5.10;;
56537;SDS011;42435;53.292;6.000;2022-09-09T08:14:35;15.98;;;8.95;;
56537;SDS011;42435;53.292;6.000;2022-09-09T08:17:01;9.95;;;7.70;;
56537;SDS011;42435;53.292;6.000;2022-09-09T08:19:27;13.65;;;8.10;;
56537;SDS011;42435;53.292;6.000;2022-09-09T08:21:55;9.88;;;4.25;;
56537;SDS011;42435;53.292;6.000;2022-09-09T08:24:20;7.53;;;4.25;;
56537;SDS011;42435;53.292;6.000;2022-09-09T08:26:48;4.82;;;3.00;;
56537;SDS011;42435;53.292;6.000;2022-09-09T08:29:14;7.18;;;3.78;;
56537;SDS011;42435;53.292;6.000;2022-09-09T08:31:42;6.15;;;3.75;;
56537;SDS011;42435;53.292;6.000;2022-09-09T08:34:11;6.78;;;3.30;;
56537;SDS011;42435;53.292;6.000;2022-09-09T08:36:41;8.30;;;4.00;;
56537;SDS011;42435;53.292;6.000;2022-09-09T08:39:09;5.90;;;3.70;;
56537;SDS011;42435;53.292;6.000;2022-09-09T08:52:29;6.75;;;3.13;;
56537;SDS011;42435;53.292;6.000;2022-09-09T08:58:12;5.07;;;2.72;;
56537;SDS011;42435;53.292;6.000;2022-09-09T09:11:49;4.30;;;2.63;;
56537;SDS011;42435;53.292;6.000;2022-09-09T09:14:21;6.82;;;3.60;;
56537;SDS011;42435;53.292;6.000;2022-09-09T09:16:59;9.38;;;3.28;;
56537;SDS011;42435;53.292;6.000;2022-09-09T09:19:28;6.68;;;3.38;;
56537;SDS011;42435;53.292;6.000;2022-09-09T09:30:20;5.63;;;3.53;;
56537;SDS011;42435;53.292;6.000;2022-09-09T09:32:51;6.70;;;3.10;;
56537;SDS011;42435;53.292;6.000;2022-09-09T09:35:24;4.82;;;2.88;;
56537;SDS011;42435;53.292;6.000;2022-09-09T09:37:50;5.75;;;3.20;;
56537;SDS011;42435;53.292;6.000;2022-09-09T09:40:17;3.33;;;2.63;;
56537;SDS011;42435;53.292;6.000;2022-09-09T09:42:48;5.93;;;3.20;;
56537;SDS011;42435;53.292;6.000;2022-09-09T09:45:35;5.60;;;2.92;;
56537;SDS011;42435;53.292;6.000;2022-09-09T09:48:09;6.30;;;3.35;;
56537;SDS011;42435;53.292;6.000;2022-09-09T09:50:46;3.20;;;2.50;;
56537;SDS011;42435;53.292;6.000;2022-09-09T09:53:27;4.55;;;2.45;;
56537;SDS011;42435;53.292;6.000;2022-09-09T09:56:16;4.97;;;2.45;;
56537;SDS011;42435;53.292;6.000;2022-09-09T10:01:26;7.70;;;3.15;;
56537;SDS011;42435;53.292;6.000;2022-09-09T10:03:53;4.82;;;2.28;;
56537;SDS011;42435;53.292;6.000;2022-09-09T10:06:35;6.28;;;2.47;;
56537;SDS011;42435;53.292;6.000;2022-09-09T10:12:00;6.78;;;2.38;;
56537;SDS011;42435;53.292;6.000;2022-09-09T10:17:56;3.30;;;2.05;;
56537;SDS011;42435;53.292;6.000;2022-09-09T10:29:00;6.80;;;2.10;;
56537;SDS011;42435;53.292;6.000;2022-09-09T10:40:02;7.18;;;1.83;;
56537;SDS011;42435;53.292;6.000;2022-09-09T10:43:16;7.18;;;2.55;;
56537;SDS011;42435;53.292;6.000;2022-09-09T10:48:29;7.13;;;1.83;;
56537;SDS011;42435;53.292;6.000;2022-09-09T10:54:13;4.47;;;1.88;;
56537;SDS011;42435;53.292;6.000;2022-09-09T10:57:08;4.25;;;1.33;;
56537;SDS011;42435;53.292;6.000;2022-09-09T10:59:50;6.13;;;1.88;;
56537;SDS011;42435;53.292;6.000;2022-09-09T11:04:53;4.57;;;1.45;;
56537;SDS011;42435;53.292;6.000;2022-09-09T11:07:37;3.63;;;1.50;;
56537;SDS011;42435;53.292;6.000;2022-09-09T11:12:50;3.47;;;1.42;;
56537;SDS011;42435;53.292;6.000;2022-09-09T11:15:23;3.05;;;1.25;;
56537;SDS011;42435;53.292;6.000;2022-09-09T11:17:56;2.10;;;1.10;;
56537;SDS011;42435;53.292;6.000;2022-09-09T11:20:26;4.05;;;1.33;;
56537;SDS011;42435;53.292;6.000;2022-09-09T11:25:34;2.83;;;1.10;;
56537;SDS011;42435;53.292;6.000;2022-09-09T11:30:38;4.50;;;1.40;;
56537;SDS011;42435;53.292;6.000;2022-09-09T11:38:59;3.75;;;1.33;;
56537;SDS011;42435;53.292;6.000;2022-09-09T11:41:39;4.18;;;1.40;;
56537;SDS011;42435;53.292;6.000;2022-09-09T11:44:12;3.83;;;1.30;;
56537;SDS011;42435;53.292;6.000;2022-09-09T11:46:42;6.60;;;1.15;;
56537;SDS011;42435;53.292;6.000;2022-09-09T11:49:28;2.28;;;0.90;;
56537;SDS011;42435;53.292;6.000;2022-09-09T11:52:12;4.00;;;1.23;;
56537;SDS011;42435;53.292;6.000;2022-09-09T11:55:07;3.38;;;0.90;;
56537;SDS011;42435;53.292;6.000;2022-09-09T11:58:02;3.55;;;1.10;;
56537;SDS011;42435;53.292;6.000;2022-09-09T12:00:42;4.50;;;1.55;;
56537;SDS011;42435;53.292;6.000;2022-09-09T12:06:20;4.03;;;1.10;;
56537;SDS011;42435;53.292;6.000;2022-09-09T12:08:56;2.30;;;0.70;;
56537;SDS011;42435;53.292;6.000;2022-09-09T12:11:32;5.28;;;1.25;;
56537;SDS011;42435;53.292;6.000;2022-09-09T12:13:58;2.67;;;1.20;;
56537;SDS011;42435;53.292;6.000;2022-09-09T12:16:29;5.22;;;1.08;;
56537;SDS011;42435;53.292;6.000;2022-09-09T12:19:41;2.05;;;0.88;;
56537;SDS011;42435;53.292;6.000;2022-09-09T12:21:58;5.28;;;1.10;;
56537;SDS011;42435;53.292;6.000;2022-09-09T12:24:59;4.05;;;0.85;;
56537;SDS011;42435;53.292;6.000;2022-09-09T12:27:44;4.10;;;1.30;;
56537;SDS011;42435;53.292;6.000;2022-09-09T12:30:22;3.47;;;1.20;;
56537;SDS011;42435;53.292;6.000;2022-09-09T12:33:10;3.67;;;1.48;;
56537;SDS011;42435;53.292;6.000;2022-09-09T12:35:40;5.53;;;1.15;;
56537;SDS011;42435;53.292;6.000;2022-09-09T12:38:15;4.40;;;1.20;;
56537;SDS011;42435;53.292;6.000;2022-09-09T12:41:06;4.32;;;1.33;;
56537;SDS011;42435;53.292;6.000;2022-09-09T12:43:44;3.72;;;1.35;;
56537;SDS011;42435;53.292;6.000;2022-09-09T12:46:11;4.13;;;1.33;;
56537;SDS011;42435;53.292;6.000;2022-09-09T12:49:02;4.93;;;1.67;;
56537;SDS011;42435;53.292;6.000;2022-09-09T12:51:29;2.85;;;1.02;;
56537;SDS011;42435;53.292;6.000;2022-09-09T12:53:56;6.70;;;1.25;;
56537;SDS011;42435;53.292;6.000;2022-09-09T12:56:27;3.72;;;1.42;;
56537;SDS011;42435;53.292;6.000;2022-09-09T12:58:56;3.65;;;1.20;;
56537;SDS011;42435;53.292;6.000;2022-09-09T13:03:50;3.80;;;0.98;;
56537;SDS011;42435;53.292;6.000;2022-09-09T13:06:20;2.85;;;1.00;;
56537;SDS011;42435;53.292;6.000;2022-09-09T13:08:47;3.60;;;1.27;;
56537;SDS011;42435;53.292;6.000;2022-09-09T13:11:16;3.03;;;1.25;;
56537;SDS011;42435;53.292;6.000;2022-09-09T13:13:52;4.60;;;1.42;;
56537;SDS011;42435;53.292;6.000;2022-09-09T13:18:57;3.97;;;1.40;;
56537;SDS011;42435;53.292;6.000;2022-09-09T13:21:35;5.03;;;1.42;;
56537;SDS011;42435;53.292;6.000;2022-09-09T13:24:03;3.58;;;1.30;;
56537;SDS011;42435;53.292;6.000;2022-09-09T13:26:32;3.30;;;1.02;;
56537;SDS011;42435;53.292;6.000;2022-09-09T13:29:15;4.65;;;1.55;;
56537;SDS011;42435;53.292;6.000;2022-09-09T13:31:45;4.05;;;0.70;;
56537;SDS011;42435;53.292;6.000;2022-09-09T13:34:12;4.43;;;1.13;;
56537;SDS011;42435;53.292;6.000;2022-09-09T13:36:59;3.92;;;1.30;;
56537;SDS011;42435;53.292;6.000;2022-09-09T13:39:30;2.72;;;1.15;;
56537;SDS011;42435;53.292;6.000;2022-09-09T13:41:59;3.58;;;1.23;;
56537;SDS011;42435;53.292;6.000;2022-09-09T13:44:31;4.10;;;1.20;;
56537;SDS011;42435;53.292;6.000;2022-09-09T13:49:28;5.40;;;1.40;;
56537;SDS011;42435;53.292;6.000;2022-09-09T13:54:38;3.72;;;1.30;;
56537;SDS011;42435;53.292;6.000;2022-09-09T13:57:04;4.95;;;1.10;;
56537;SDS011;42435;53.292;6.000;2022-09-09T13:59:31;6.20;;;1.42;;
56537;SDS011;42435;53.292;6.000;2022-09-09T14:01:57;3.72;;;1.30;;
56537;SDS011;42435;53.292;6.000;2022-09-09T14:04:23;3.55;;;1.40;;
56537;SDS011;42435;53.292;6.000;2022-09-09T14:06:49;6.05;;;1.10;;
56537;SDS011;42435;53.292;6.000;2022-09-09T14:09:15;4.40;;;1.30;;
56537;SDS011;42435;53.292;6.000;2022-09-09T14:11:43;1.92;;;0.93;;
56537;SDS011;42435;53.292;6.000;2022-09-09T14:14:11;2.75;;;0.90;;
56537;SDS011;42435;53.292;6.000;2022-09-09T14:16:36;1.30;;;0.90;;
56537;SDS011;42435;53.292;6.000;2022-09-09T14:19:03;4.88;;;1.80;;
56537;SDS011;42435;53.292;6.000;2022-09-09T14:21:29;1.90;;;1.05;;
56537;SDS011;42435;53.292;6.000;2022-09-09T14:23:54;4.90;;;1.42;;
56537;SDS011;42435;53.292;6.000;2022-09-09T14:26:20;3.85;;;0.95;;
56537;SDS011;42435;53.292;6.000;2022-09-09T14:28:46;2.45;;;1.35;;
56537;SDS011;42435;53.292;6.000;2022-09-09T14:31:13;4.30;;;1.00;;
56537;SDS011;42435;53.292;6.000;2022-09-09T14:33:38;1.90;;;0.70;;
56537;SDS011;42435;53.292;6.000;2022-09-09T14:36:05;2.67;;;0.85;;
56537;SDS011;42435;53.292;6.000;2022-09-09T14:38:32;3.97;;;0.80;;
56537;SDS011;42435;53.292;6.000;2022-09-09T14:41:11;3.28;;;1.13;;
56537;SDS011;42435;53.292;6.000;2022-09-09T14:43:41;4.78;;;1.35;;
56537;SDS011;42435;53.292;6.000;2022-09-09T14:46:08;2.88;;;1.30;;
56537;SDS011;42435;53.292;6.000;2022-09-09T14:48:36;1.83;;;1.35;;
56537;SDS011;42435;53.292;6.000;2022-09-09T14:51:08;2.00;;;0.90;;
56537;SDS011;42435;53.292;6.000;2022-09-09T14:53:36;2.85;;;1.00;;
56537;SDS011;42435;53.292;6.000;2022-09-09T14:56:06;3.42;;;1.15;;
56537;SDS011;42435;53.292;6.000;2022-09-09T15:01:10;3.17;;;0.98;;
56537;SDS011;42435;53.292;6.000;2022-09-09T15:08:33;3.20;;;1.15;;
56537;SDS011;42435;53.292;6.000;2022-09-09T15:11:01;2.83;;;0.88;;
56537;SDS011;42435;53.292;6.000;2022-09-09T15:13:27;2.33;;;0.80;;
56537;SDS011;42435;53.292;6.000;2022-09-09T15:15:53;1.67;;;0.75;;
56537;SDS011;42435;53.292;6.000;2022-09-09T15:18:19;2.35;;;0.90;;
56537;SDS011;42435;53.292;6.000;2022-09-09T15:20:45;2.03;;;0.70;;
56537;SDS011;42435;53.292;6.000;2022-09-09T15:23:11;1.65;;;0.70;;
56537;SDS011;42435;53.292;6.000;2022-09-09T15:25:37;1.92;;;0.80;;
56537;SDS011;42435;53.292;6.000;2022-09-09T15:28:03;1.05;;;0.68;;
56537;SDS011;42435;53.292;6.000;2022-09-09T15:30:28;4.28;;;1.00;;
56537;SDS011;42435;53.292;6.000;2022-09-09T15:32:54;4.28;;;0.80;;
56537;SDS011;42435;53.292;6.000;2022-09-09T15:35:19;3.22;;;1.10;;
56537;SDS011;42435;53.292;6.000;2022-09-09T15:37:45;3.55;;;1.35;;
56537;SDS011;42435;53.292;6.000;2022-09-09T15:40:11;2.00;;;1.20;;
56537;SDS011;42435;53.292;6.000;2022-09-09T15:42:37;4.03;;;1.33;;
56537;SDS011;42435;53.292;6.000;2022-09-09T15:45:03;1.90;;;1.30;;
56537;SDS011;42435;53.292;6.000;2022-09-09T15:47:30;2.58;;;1.20;;
56537;SDS011;42435;53.292;6.000;2022-09-09T15:49:57;2.33;;;1.25;;
56537;SDS011;42435;53.292;6.000;2022-09-09T15:52:22;3.55;;;1.73;;
56537;SDS011;42435;53.292;6.000;2022-09-09T15:54:48;2.22;;;1.45;;
56537;SDS011;42435;53.292;6.000;2022-09-09T15:57:14;2.83;;;1.80;;
56537;SDS011;42435;53.292;6.000;2022-09-09T15:59:39;4.93;;;2.10;;
56537;SDS011;42435;53.292;6.000;2022-09-09T16:02:05;2.05;;;1.80;;
56537;SDS011;42435;53.292;6.000;2022-09-09T16:04:31;3.03;;;1.55;;
56537;SDS011;42435;53.292;6.000;2022-09-09T16:07:00;2.65;;;1.40;;
56537;SDS011;42435;53.292;6.000;2022-09-09T16:09:28;2.40;;;1.80;;
56537;SDS011;42435;53.292;6.000;2022-09-09T16:12:02;3.05;;;1.40;;
56537;SDS011;42435;53.292;6.000;2022-09-09T16:14:34;1.48;;;1.30;;
56537;SDS011;42435;53.292;6.000;2022-09-09T16:17:01;2.42;;;1.50;;
56537;SDS011;42435;53.292;6.000;2022-09-09T16:19:27;2.85;;;1.75;;
56537;SDS011;42435;53.292;6.000;2022-09-09T16:21:53;2.42;;;1.80;;
56537;SDS011;42435;53.292;6.000;2022-09-09T16:24:19;2.63;;;1.48;;
56537;SDS011;42435;53.292;6.000;2022-09-09T16:26:46;2.20;;;1.40;;
56537;SDS011;42435;53.292;6.000;2022-09-09T16:29:13;2.55;;;1.40;;
56537;SDS011;42435;53.292;6.000;2022-09-09T16:31:41;2.70;;;1.48;;
56537;SDS011;42435;53.292;6.000;2022-09-09T16:34:08;5.75;;;1.70;;
56537;SDS011;42435;53.292;6.000;2022-09-09T16:36:34;3.33;;;1.70;;
56537;SDS011;42435;53.292;6.000;2022-09-09T16:39:03;4.40;;;2.25;;
56537;SDS011;42435;53.292;6.000;2022-09-09T16:41:30;2.67;;;2.47;;
56537;SDS011;42435;53.292;6.000;2022-09-09T16:44:00;2.95;;;2.30;;
56537;SDS011;42435;53.292;6.000;2022-09-09T16:46:31;2.75;;;2.05;;
56537;SDS011;42435;53.292;6.000;2022-09-09T16:48:59;4.13;;;2.13;;
56537;SDS011;42435;53.292;6.000;2022-09-09T16:51:31;1.83;;;1.70;;
56537;SDS011;42435;53.292;6.000;2022-09-09T16:54:05;3.40;;;2.60;;
56537;SDS011;42435;53.292;6.000;2022-09-09T16:56:32;3.22;;;2.28;;
56537;SDS011;42435;53.292;6.000;2022-09-09T16:59:02;5.18;;;2.13;;
56537;SDS011;42435;53.292;6.000;2022-09-09T17:01:31;2.63;;;2.33;;
56537;SDS011;42435;53.292;6.000;2022-09-09T17:04:00;2.20;;;1.98;;
56537;SDS011;42435;53.292;6.000;2022-09-09T17:06:28;3.47;;;2.22;;
56537;SDS011;42435;53.292;6.000;2022-09-09T17:08:56;2.63;;;1.75;;
56537;SDS011;42435;53.292;6.000;2022-09-09T17:11:23;2.47;;;1.73;;
56537;SDS011;42435;53.292;6.000;2022-09-09T17:13:49;2.67;;;2.00;;
56537;SDS011;42435;53.292;6.000;2022-09-09T17:16:16;3.13;;;1.88;;
56537;SDS011;42435;53.292;6.000;2022-09-09T17:18:43;4.93;;;2.13;;
56537;SDS011;42435;53.292;6.000;2022-09-09T17:21:15;2.17;;;1.70;;
56537;SDS011;42435;53.292;6.000;2022-09-09T17:23:43;2.75;;;2.08;;
56537;SDS011;42435;53.292;6.000;2022-09-09T17:26:11;1.75;;;1.40;;